Time;durP1;ratioP1;P1;durP2;ratioP2;P2;SDS_P1;SDS_P2;PMS_P1;PMS_P2;Temp;Humidity;BMP_temperature;BMP_pressure;BME280_temperature;BME280_humidity;BME280_pressure;Samples;Min_cycle;Max_cycle;Signal;HPM_P1;HPM_P2
2021/05/31 00:00:15;;;;;;;11.30;4.17;;;11.80;77.70;;;;;;5031139;28;20490;-49
2021/05/31 00:02:42;;;;;;;4.23;3.40;;;11.60;77.70;;;;;;5032738;28;20504;-48
2021/05/31 00:05:09;;;;;;;5.70;4.60;;;11.70;78.00;;;;;;5032786;28;20437;-48
2021/05/31 00:07:36;;;;;;;7.70;4.10;;;11.50;77.90;;;;;;5031521;28;20443;-49
2021/05/31 00:10:03;;;;;;;6.67;4.07;;;11.70;78.10;;;;;;5032307;28;20471;-49
2021/05/31 00:12:30;;;;;;;4.83;3.43;;;12.10;78.90;;;;;;5032836;28;20460;-48
2021/05/31 00:14:57;;;;;;;6.03;3.70;;;11.80;79.00;;;;;;5033021;28;20523;-49
2021/05/31 00:17:25;;;;;;;5.37;3.63;;;11.40;78.90;;;;;;5032911;28;20429;-48
2021/05/31 00:19:52;;;;;;;3.30;3.00;;;11.50;79.70;;;;;;5032675;28;20485;-48
2021/05/31 00:22:20;;;;;;;7.37;3.30;;;11.30;80.00;;;;;;5032829;28;20468;-48
2021/05/31 00:24:46;;;;;;;4.63;3.70;;;11.40;80.30;;;;;;5032789;28;20443;-49
2021/05/31 00:27:14;;;;;;;6.80;3.70;;;11.40;80.60;;;;;;5032681;28;20440;-49
2021/05/31 00:29:42;;;;;;;5.90;3.43;;;11.10;80.80;;;;;;5031853;28;20448;-48
2021/05/31 00:32:09;;;;;;;5.87;4.13;;;11.40;81.50;;;;;;5032589;28;20452;-48
2021/05/31 00:34:35;;;;;;;5.40;3.80;;;11.40;82.10;;;;;;5032387;28;20884;-49
2021/05/31 00:37:01;;;;;;;7.20;3.50;;;11.30;82.30;;;;;;5032525;28;20458;-48
2021/05/31 00:39:28;;;;;;;4.67;3.60;;;11.50;82.50;;;;;;5032066;28;20435;-49
2021/05/31 00:41:54;;;;;;;4.73;4.00;;;11.50;83.20;;;;;;5031856;28;20435;-48
2021/05/31 00:44:22;;;;;;;7.10;4.00;;;11.10;83.10;;;;;;5032096;28;20424;-49
2021/05/31 00:46:50;;;;;;;5.60;3.93;;;11.50;83.90;;;;;;5031930;28;20519;-49
2021/05/31 00:49:17;;;;;;;4.13;3.73;;;11.10;84.00;;;;;;5031353;28;20438;-49
2021/05/31 00:51:44;;;;;;;5.10;3.57;;;11.10;84.50;;;;;;5031862;28;20480;-49
2021/05/31 00:54:11;;;;;;;6.03;4.53;;;11.10;85.10;;;;;;5030376;28;20454;-49
2021/05/31 00:56:40;;;;;;;6.90;4.23;;;10.60;85.10;;;;;;5031657;28;20439;-49
2021/05/31 00:59:06;;;;;;;4.63;3.77;;;11.10;86.40;;;;;;5031453;28;20944;-49
2021/05/31 01:01:32;;;;;;;6.93;4.10;;;11.10;87.00;;;;;;5031755;28;20427;-49
2021/05/31 01:04:00;;;;;;;8.10;4.53;;;10.50;86.80;;;;;;5031720;28;20451;-49
2021/05/31 01:06:31;;;;;;;6.50;4.50;;;10.90;87.80;;;;;;5032278;28;20416;-49
2021/05/31 01:09:05;;;;;;;6.70;4.70;;;10.60;87.90;;;;;;5030328;28;20447;-49
2021/05/31 01:11:44;;;;;;;6.17;4.10;;;10.50;88.50;;;;;;5031950;28;20498;-48
2021/05/31 01:14:19;;;;;;;6.30;4.20;;;11.10;89.70;;;;;;5031854;28;20427;-48
2021/05/31 01:16:49;;;;;;;4.60;3.53;;;10.90;89.80;;;;;;5032137;28;20771;-49
2021/05/31 01:19:32;;;;;;;6.13;4.57;;;11.20;90.30;;;;;;5031714;28;20512;-49
2021/05/31 01:22:03;;;;;;;4.57;3.60;;;10.00;89.80;;;;;;5031846;28;20444;-49
2021/05/31 01:24:47;;;;;;;5.40;4.60;;;10.70;90.10;;;;;;5031858;28;20435;-49
2021/05/31 01:27:28;;;;;;;5.33;3.93;;;10.50;90.20;;;;;;5031711;28;20947;-49
2021/05/31 01:30:00;;;;;;;4.93;3.60;;;10.50;90.10;;;;;;5031266;28;20431;-48
2021/05/31 01:32:30;;;;;;;4.50;4.10;;;11.00;90.50;;;;;;5031601;28;20964;-49
2021/05/31 01:34:57;;;;;;;4.13;3.73;;;10.80;90.50;;;;;;5031483;28;20457;-49
2021/05/31 01:37:26;;;;;;;6.60;4.20;;;10.50;90.80;;;;;;5031449;28;20489;-48
2021/05/31 01:39:55;;;;;;;5.23;4.73;;;10.50;91.20;;;;;;5031174;28;20947;-49
2021/05/31 01:42:24;;;;;;;5.70;4.80;;;10.80;91.60;;;;;;5031172;28;20467;-49
2021/05/31 01:44:51;;;;;;;4.77;4.33;;;10.30;91.70;;;;;;5031402;28;20436;-49
2021/05/31 01:47:18;;;;;;;8.50;4.30;;;10.90;92.20;;;;;;5031331;28;20428;-49
2021/05/31 01:49:45;;;;;;;7.23;3.90;;;10.40;92.10;;;;;;5031064;28;20457;-48
2021/05/31 01:52:13;;;;;;;4.73;4.20;;;10.90;92.40;;;;;;5031330;28;20464;-49
2021/05/31 01:54:40;;;;;;;9.73;4.77;;;10.50;92.60;;;;;;5031112;28;20435;-49
2021/05/31 01:57:07;;;;;;;8.50;4.80;;;10.30;92.90;;;;;;5031110;28;20428;-48
2021/05/31 01:59:35;;;;;;;6.57;4.07;;;10.50;93.20;;;;;;5030631;28;20439;-49
2021/05/31 02:02:01;;;;;;;5.30;4.40;;;10.70;93.70;;;;;;5030273;28;20537;-48
2021/05/31 02:04:29;;;;;;;7.00;4.27;;;10.50;93.90;;;;;;5029750;28;20947;-49
2021/05/31 02:06:55;;;;;;;10.90;5.50;;;9.90;94.40;;;;;;5030845;28;20584;-48
2021/05/31 02:09:23;;;;;;;6.33;3.87;;;9.90;94.70;;;;;;5030861;28;20751;-49
2021/05/31 02:11:55;;;;;;;6.07;4.57;;;9.80;94.50;;;;;;5029231;28;20483;-49
2021/05/31 02:14:32;;;;;;;6.20;3.80;;;9.90;94.90;;;;;;5030836;28;20932;-48
2021/05/31 02:17:03;;;;;;;5.50;4.37;;;9.80;95.00;;;;;;5030803;28;20435;-48
2021/05/31 02:19:35;;;;;;;4.70;3.87;;;9.90;95.00;;;;;;5030578;28;20428;-50
2021/05/31 02:22:03;;;;;;;7.90;5.00;;;9.80;95.40;;;;;;5030703;28;20443;-48
2021/05/31 02:24:31;;;;;;;5.20;4.47;;;9.80;95.90;;;;;;5030644;28;20438;-48
2021/05/31 02:26:58;;;;;;;6.00;4.80;;;9.80;95.80;;;;;;5030726;28;20446;-49
2021/05/31 02:29:25;;;;;;;6.43;4.50;;;10.10;95.90;;;;;;5030307;28;20504;-48
2021/05/31 02:31:52;;;;;;;6.37;4.60;;;9.10;96.10;;;;;;5029207;28;20493;-48
2021/05/31 02:34:19;;;;;;;5.27;4.77;;;9.20;96.30;;;;;;5030695;28;20632;-49
2021/05/31 02:36:47;;;;;;;5.57;4.33;;;9.70;96.70;;;;;;5029270;28;20455;-48
2021/05/31 02:39:13;;;;;;;5.63;4.83;;;9.50;96.80;;;;;;5030349;28;20450;-49
2021/05/31 02:41:39;;;;;;;6.20;4.70;;;9.70;97.10;;;;;;5030945;28;20474;-49
2021/05/31 02:44:05;;;;;;;5.00;4.50;;;10.20;96.70;;;;;;5030996;28;20467;-49
2021/05/31 02:46:31;;;;;;;9.53;5.00;;;9.50;97.00;;;;;;5030966;28;20589;-49
2021/05/31 02:48:58;;;;;;;11.90;6.07;;;9.60;97.40;;;;;;5030145;28;20434;-49
2021/05/31 02:51:24;;;;;;;10.80;5.90;;;10.00;97.30;;;;;;5030335;28;20499;-48
2021/05/31 02:53:51;;;;;;;6.90;6.20;;;9.50;98.30;;;;;;5030261;28;20603;-49
2021/05/31 02:56:17;;;;;;;9.23;5.70;;;9.30;98.60;;;;;;5030393;28;20488;-48
2021/05/31 02:58:43;;;;;;;7.90;6.37;;;9.50;98.70;;;;;;5030016;28;20439;-49
2021/05/31 03:01:09;;;;;;;10.60;5.47;;;9.50;99.20;;;;;;5028839;28;20465;-49
2021/05/31 03:03:36;;;;;;;6.80;4.90;;;9.50;99.20;;;;;;5030236;28;20447;-48
2021/05/31 03:06:02;;;;;;;8.00;4.87;;;9.20;99.60;;;;;;5030446;28;20436;-48
2021/05/31 03:08:28;;;;;;;9.23;5.50;;;9.30;99.80;;;;;;5030072;28;20490;-49
2021/05/31 03:10:56;;;;;;;7.07;5.07;;;9.30;99.90;;;;;;5028868;28;21012;-48
2021/05/31 03:13:22;;;;;;;9.43;5.87;;;9.20;99.90;;;;;;5032276;28;20452;-49
2021/05/31 03:15:49;;;;;;;12.73;6.23;;;9.30;99.90;;;;;;5033692;28;20435;-49
2021/05/31 03:18:16;;;;;;;6.37;4.53;;;9.10;99.90;;;;;;5033008;28;20451;-48
2021/05/31 03:20:42;;;;;;;6.30;4.97;;;9.10;99.90;;;;;;5033295;28;20466;-49
2021/05/31 03:23:08;;;;;;;8.40;5.97;;;9.30;99.90;;;;;;5033147;28;20455;-50
2021/05/31 03:25:34;;;;;;;9.63;5.43;;;9.40;99.90;;;;;;5033243;28;20499;-49
2021/05/31 03:28:02;;;;;;;7.97;5.57;;;9.30;99.90;;;;;;5033155;28;20557;-47
2021/05/31 03:30:28;;;;;;;8.10;6.00;;;8.90;99.90;;;;;;5033423;28;21043;-49
2021/05/31 03:32:56;;;;;;;7.20;6.50;;;9.30;99.90;;;;;;5033573;28;20538;-48
2021/05/31 03:35:22;;;;;;;8.47;5.70;;;9.20;99.90;;;;;;5033673;28;20900;-49
2021/05/31 03:37:48;;;;;;;8.27;6.17;;;8.80;99.90;;;;;;5033543;28;20459;-49
2021/05/31 03:40:17;;;;;;;10.80;6.80;;;9.60;99.90;;;;;;5033158;28;20443;-48
2021/05/31 03:42:43;;;;;;;9.37;5.70;;;9.60;99.90;;;;;;5033102;28;20473;-49
2021/05/31 03:45:12;;;;;;;11.27;5.90;;;9.60;99.90;;;;;;5032787;28;20559;-49
2021/05/31 03:47:38;;;;;;;9.00;6.17;;;9.30;99.90;;;;;;5033476;28;20435;-48
2021/05/31 03:50:06;;;;;;;11.47;7.50;;;9.40;99.90;;;;;;5033340;28;20781;-48
2021/05/31 03:52:32;;;;;;;8.20;5.83;;;9.40;99.90;;;;;;5033441;28;20457;-48
2021/05/31 03:54:59;;;;;;;9.50;6.40;;;9.60;99.90;;;;;;5033497;28;20467;-49
2021/05/31 03:57:25;;;;;;;8.57;6.47;;;9.70;99.90;;;;;;5033680;28;20435;-49
2021/05/31 03:59:52;;;;;;;9.13;6.00;;;8.90;99.90;;;;;;5033345;28;20530;-49
2021/05/31 04:02:20;;;;;;;9.13;6.57;;;9.70;99.90;;;;;;5033330;28;20805;-48
2021/05/31 04:04:50;;;;;;;8.13;5.63;;;9.90;99.90;;;;;;5033500;28;20520;-49
2021/05/31 04:12:45;;;;;;;8.23;5.80;;;9.90;99.90;;;;;;5033200;28;20546;-49
2021/05/31 04:15:12;;;;;;;7.70;5.53;;;9.40;99.90;;;;;;5032902;28;20427;-49
2021/05/31 04:17:40;;;;;;;7.00;5.23;;;9.90;99.90;;;;;;5032799;28;20931;-49
2021/05/31 04:20:07;;;;;;;11.17;5.60;;;10.00;99.90;;;;;;5032466;28;20450;-49
2021/05/31 04:22:33;;;;;;;8.93;5.37;;;10.00;99.90;;;;;;5032338;28;20452;-49
2021/05/31 04:25:00;;;;;;;15.10;6.60;;;10.00;99.90;;;;;;5032862;28;20428;-49
2021/05/31 04:27:26;;;;;;;7.93;5.77;;;10.40;99.90;;;;;;5032947;28;20798;-49
2021/05/31 04:29:52;;;;;;;9.60;5.93;;;10.30;99.90;;;;;;5032285;28;20947;-49
2021/05/31 04:32:18;;;;;;;8.70;6.23;;;10.50;99.90;;;;;;5032294;28;20517;-49
2021/05/31 04:34:46;;;;;;;7.50;5.43;;;10.60;99.90;;;;;;5032620;28;20765;-49
2021/05/31 04:37:12;;;;;;;8.57;5.23;;;10.80;99.90;;;;;;5032184;28;20546;-49
2021/05/31 04:39:38;;;;;;;6.93;5.57;;;11.50;99.90;;;;;;5032081;28;20489;-49
2021/05/31 04:42:07;;;;;;;6.77;5.70;;;11.20;99.90;;;;;;5032501;28;20460;-54
2021/05/31 04:44:34;;;;;;;8.90;5.30;;;11.20;99.90;;;;;;5032395;28;20438;-49
2021/05/31 04:47:00;;;;;;;8.60;6.07;;;11.50;99.90;;;;;;5032192;28;20437;-49
2021/05/31 04:49:26;;;;;;;10.30;4.93;;;11.60;99.90;;;;;;5032082;28;20494;-49
2021/05/31 04:51:54;;;;;;;7.00;4.63;;;11.70;99.70;;;;;;5031956;28;20483;-49
2021/05/31 04:54:20;;;;;;;7.20;4.47;;;12.00;99.40;;;;;;5032266;28;20929;-49
2021/05/31 04:56:46;;;;;;;8.20;5.30;;;12.00;98.90;;;;;;5032171;28;20440;-49
2021/05/31 04:59:13;;;;;;;9.73;5.30;;;12.10;98.50;;;;;;5031866;28;20501;-49
2021/05/31 05:01:39;;;;;;;7.27;4.50;;;12.00;98.10;;;;;;5031981;28;20439;-48
2021/05/31 05:04:06;;;;;;;9.10;6.07;;;12.50;98.20;;;;;;5031873;28;20452;-49
2021/05/31 05:06:33;;;;;;;9.70;6.43;;;12.50;97.70;;;;;;5031775;28;20440;-49
2021/05/31 05:09:01;;;;;;;6.40;5.10;;;12.40;97.60;;;;;;5031805;28;20445;-49
2021/05/31 05:11:27;;;;;;;7.83;6.27;;;12.30;97.60;;;;;;5031673;28;20536;-49
2021/05/31 05:13:53;;;;;;;9.70;5.77;;;12.40;97.40;;;;;;5031602;28;20499;-49
2021/05/31 05:16:19;;;;;;;5.97;4.50;;;12.90;97.50;;;;;;5031505;28;20433;-49
2021/05/31 05:18:46;;;;;;;8.67;5.80;;;12.60;97.10;;;;;;5031256;28;21022;-48
2021/05/31 05:21:13;;;;;;;6.57;5.67;;;12.90;97.20;;;;;;5030158;28;20450;-49
2021/05/31 05:23:40;;;;;;;7.17;5.00;;;12.90;96.80;;;;;;5029959;28;20512;-49
2021/05/31 05:26:07;;;;;;;8.63;5.60;;;13.00;96.80;;;;;;5031372;28;20447;-49
2021/05/31 05:28:36;;;;;;;6.07;4.80;;;13.00;96.60;;;;;;5031489;28;20859;-49
2021/05/31 05:31:06;;;;;;;5.80;5.10;;;13.40;96.30;;;;;;5031309;28;20499;-50
2021/05/31 05:33:34;;;;;;;6.37;5.40;;;13.60;96.40;;;;;;5031136;28;20823;-49
2021/05/31 05:36:10;;;;;;;7.20;5.63;;;13.10;95.70;;;;;;5029533;28;20524;-49
2021/05/31 05:39:06;;;;;;;7.47;4.83;;;13.60;95.90;;;;;;5030795;28;20500;-49
2021/05/31 05:41:40;;;;;;;9.53;5.03;;;13.60;95.40;;;;;;5031049;28;20459;-49
2021/05/31 05:46:52;;;;;;;5.50;5.00;;;13.60;95.50;;;;;;5031156;28;20435;-49
2021/05/31 05:49:18;;;;;;;7.20;5.33;;;13.50;95.60;;;;;;5030033;28;20429;-49
2021/05/31 05:51:44;;;;;;;5.07;4.57;;;13.60;95.70;;;;;;5029874;28;20582;-49
2021/05/31 05:54:10;;;;;;;7.23;5.43;;;13.70;95.60;;;;;;5030576;28;20893;-49
2021/05/31 05:56:38;;;;;;;14.90;5.50;;;13.50;95.50;;;;;;5030925;28;20923;-50
2021/05/31 05:59:04;;;;;;;5.10;4.60;;;13.90;95.60;;;;;;5030542;28;20434;-49
2021/05/31 06:01:30;;;;;;;6.93;5.47;;;14.00;95.20;;;;;;5030467;28;20521;-49
2021/05/31 06:03:57;;;;;;;9.40;5.40;;;14.00;94.90;;;;;;5030549;28;20590;-49
2021/05/31 06:06:25;;;;;;;7.30;5.20;;;14.10;95.10;;;;;;5030309;28;20445;-48
2021/05/31 06:08:51;;;;;;;9.93;5.50;;;14.10;95.00;;;;;;5029027;28;20498;-49
2021/05/31 06:11:18;;;;;;;8.10;5.07;;;14.20;94.70;;;;;;5030127;28;20478;-49
2021/05/31 06:13:50;;;;;;;6.33;4.70;;;14.10;94.40;;;;;;5030091;28;20466;-49
2021/05/31 06:16:16;;;;;;;14.60;5.70;;;14.40;94.40;;;;;;5029902;28;20458;-49
2021/05/31 06:18:42;;;;;;;5.93;5.00;;;14.70;94.40;;;;;;5029458;28;20896;-49
2021/05/31 06:21:08;;;;;;;6.40;4.20;;;14.70;94.30;;;;;;5030301;28;20764;-49
2021/05/31 06:23:35;;;;;;;8.53;5.17;;;14.80;94.30;;;;;;5030260;28;20899;-49
2021/05/31 06:26:01;;;;;;;7.13;5.60;;;14.70;93.80;;;;;;5029937;28;20437;-49
2021/05/31 06:28:27;;;;;;;6.40;5.27;;;14.70;93.70;;;;;;5029547;28;20498;-49
2021/05/31 06:30:54;;;;;;;6.97;5.03;;;14.90;93.60;;;;;;5028948;28;20564;-49
2021/05/31 06:33:21;;;;;;;7.77;5.00;;;15.00;93.30;;;;;;5029427;28;20973;-49
2021/05/31 06:35:48;;;;;;;8.97;5.07;;;15.30;93.30;;;;;;5030136;28;20534;-49
2021/05/31 06:38:15;;;;;;;10.10;5.43;;;15.20;93.00;;;;;;5029938;28;20435;-48
2021/05/31 06:40:41;;;;;;;6.13;5.17;;;14.70;92.30;;;;;;5029865;28;20542;-48
2021/05/31 06:43:07;;;;;;;6.23;5.00;;;15.30;92.30;;;;;;5029595;28;20997;-49
2021/05/31 06:45:33;;;;;;;7.93;5.60;;;15.60;92.40;;;;;;5030646;28;20443;-49
2021/05/31 06:48:03;;;;;;;9.70;5.20;;;15.40;91.90;;;;;;5033963;28;20924;-49
2021/05/31 06:50:31;;;;;;;8.43;5.40;;;15.20;91.60;;;;;;5033683;28;20446;-49
2021/05/31 06:52:58;;;;;;;7.97;5.60;;;15.20;91.70;;;;;;5033916;28;20462;-49
2021/05/31 06:55:25;;;;;;;8.13;4.90;;;15.40;91.60;;;;;;5034072;28;20963;-49
2021/05/31 06:57:52;;;;;;;7.37;5.90;;;15.70;91.70;;;;;;5033852;28;20435;-50
2021/05/31 07:00:20;;;;;;;8.73;5.50;;;15.60;91.60;;;;;;5033441;28;20966;-50
2021/05/31 07:02:46;;;;;;;13.10;6.17;;;15.50;91.40;;;;;;5033606;28;20452;-50
2021/05/31 07:05:15;;;;;;;8.30;5.20;;;15.40;91.30;;;;;;5033703;28;20439;-50
2021/05/31 07:07:41;;;;;;;5.03;4.43;;;15.70;91.40;;;;;;5033588;28;20860;-50
2021/05/31 07:10:09;;;;;;;6.93;5.03;;;15.80;91.60;;;;;;5033283;28;20481;-50
2021/05/31 07:12:36;;;;;;;10.70;5.33;;;15.60;91.70;;;;;;5032967;28;20505;-50
2021/05/31 07:15:05;;;;;;;8.33;4.93;;;15.70;91.40;;;;;;5034081;28;20501;-51
2021/05/31 07:17:32;;;;;;;8.27;5.00;;;15.70;91.00;;;;;;5032972;28;20983;-48
2021/05/31 07:19:59;;;;;;;6.60;4.90;;;15.90;90.80;;;;;;5032957;28;20439;-50
2021/05/31 07:22:27;;;;;;;9.10;6.57;;;15.80;90.70;;;;;;5033337;28;20451;-48
2021/05/31 07:24:53;;;;;;;7.83;6.20;;;15.90;90.40;;;;;;5033256;28;20448;-49
2021/05/31 07:27:20;;;;;;;12.50;5.77;;;15.80;90.70;;;;;;5033120;28;20445;-50
2021/05/31 07:29:47;;;;;;;10.03;4.90;;;16.00;90.40;;;;;;5033013;28;20542;-50
2021/05/31 07:32:14;;;;;;;10.33;5.20;;;16.00;90.70;;;;;;5033014;28;20483;-50
2021/05/31 07:34:40;;;;;;;8.97;6.10;;;16.40;90.70;;;;;;5031621;28;20550;-49
2021/05/31 07:37:07;;;;;;;6.90;5.17;;;16.30;90.40;;;;;;5033567;28;20716;-50
2021/05/31 07:39:34;;;;;;;8.47;5.33;;;16.30;90.20;;;;;;5032660;28;20431;-50
2021/05/31 07:42:01;;;;;;;9.60;6.20;;;16.30;90.30;;;;;;5033022;28;20423;-50
2021/05/31 07:44:27;;;;;;;8.33;4.73;;;16.10;90.10;;;;;;5032971;28;20457;-50
2021/05/31 07:46:53;;;;;;;7.73;5.20;;;16.30;90.10;;;;;;5033166;28;20444;-50
2021/05/31 07:49:19;;;;;;;9.33;5.50;;;16.20;89.80;;;;;;5032742;28;20924;-50
2021/05/31 07:51:46;;;;;;;10.77;5.23;;;16.10;89.30;;;;;;5031582;28;20565;-49
2021/05/31 07:54:14;;;;;;;8.93;6.67;;;16.20;89.50;;;;;;5032913;28;20435;-50
2021/05/31 07:56:42;;;;;;;9.73;4.63;;;16.20;89.60;;;;;;5031500;28;20459;-50
2021/05/31 07:59:08;;;;;;;7.83;5.03;;;16.30;89.60;;;;;;5030162;28;20457;-50
2021/05/31 08:01:35;;;;;;;9.43;6.13;;;15.90;89.00;;;;;;5033082;28;20441;-50
2021/05/31 08:04:03;;;;;;;8.33;5.20;;;16.30;89.30;;;;;;5032790;28;20870;-50
2021/05/31 08:06:30;;;;;;;6.97;5.00;;;16.50;89.40;;;;;;5031468;28;20459;-50
2021/05/31 08:08:56;;;;;;;11.60;6.23;;;16.30;89.40;;;;;;5032681;28;20444;-50
2021/05/31 08:11:22;;;;;;;6.73;5.73;;;16.50;89.90;;;;;;5032607;28;20486;-50
2021/05/31 08:13:50;;;;;;;8.67;5.97;;;16.30;89.60;;;;;;5032448;28;20506;-50
2021/05/31 08:16:18;;;;;;;8.17;6.87;;;16.50;89.40;;;;;;5031789;28;20900;-50
2021/05/31 08:18:44;;;;;;;7.30;5.57;;;16.70;89.60;;;;;;5032184;28;20455;-50
2021/05/31 08:21:11;;;;;;;9.50;7.93;;;16.40;88.60;;;;;;5032570;28;20445;-49
2021/05/31 08:23:38;;;;;;;8.73;5.40;;;16.50;89.00;;;;;;5032843;28;20924;-48
2021/05/31 08:26:05;;;;;;;6.40;5.00;;;16.50;88.50;;;;;;5032395;28;20439;-48
2021/05/31 08:28:31;;;;;;;8.17;5.10;;;16.50;88.10;;;;;;5032514;28;20439;-49
2021/05/31 08:31:00;;;;;;;8.03;4.57;;;16.50;87.90;;;;;;5032192;28;20504;-48
2021/05/31 08:33:26;;;;;;;7.03;4.30;;;16.70;87.30;;;;;;5032234;28;20956;-51
2021/05/31 08:35:53;;;;;;;7.00;4.40;;;16.60;87.00;;;;;;5032426;28;20438;-49
2021/05/31 08:38:19;;;;;;;4.90;4.40;;;16.60;85.70;;;;;;5031434;28;20432;-49
2021/05/31 08:40:45;;;;;;;7.57;4.60;;;16.40;85.20;;;;;;5032414;28;20436;-49
2021/05/31 08:43:12;;;;;;;10.07;5.00;;;16.60;85.20;;;;;;5031809;28;20468;-48
2021/05/31 08:45:39;;;;;;;5.80;4.37;;;16.90;85.10;;;;;;5032109;28;20853;-49
2021/05/31 08:48:09;;;;;;;4.63;3.83;;;16.70;83.30;;;;;;5031894;28;20450;-50
2021/05/31 08:50:36;;;;;;;5.07;4.10;;;16.50;81.40;;;;;;5031852;28;20844;-50
2021/05/31 08:53:03;;;;;;;4.50;3.20;;;16.60;81.70;;;;;;5032102;28;20474;-48
2021/05/31 08:55:31;;;;;;;5.00;3.53;;;16.60;81.50;;;;;;5032020;28;20427;-48
2021/05/31 08:57:58;;;;;;;6.43;4.00;;;16.80;80.40;;;;;;5031966;28;20797;-49
2021/05/31 09:00:26;;;;;;;5.97;3.90;;;16.80;80.00;;;;;;5032043;28;20436;-48
2021/05/31 09:02:53;;;;;;;7.50;3.90;;;16.80;79.80;;;;;;5031898;28;20460;-48
2021/05/31 09:05:31;;;;;;;7.07;3.97;;;17.10;79.30;;;;;;5031852;28;20445;-50
2021/05/31 09:08:02;;;;;;;4.00;3.30;;;16.90;77.50;;;;;;5031574;28;20511;-48
2021/05/31 09:10:38;;;;;;;7.50;3.77;;;16.80;76.70;;;;;;5030269;28;20444;-48
2021/05/31 09:13:04;;;;;;;4.00;3.03;;;16.90;75.70;;;;;;5031615;28;20792;-50
2021/05/31 09:15:31;;;;;;;5.00;2.97;;;16.90;74.60;;;;;;5031345;28;20538;-50
2021/05/31 09:17:57;;;;;;;6.63;3.27;;;16.50;73.60;;;;;;5031395;28;20805;-50
2021/05/31 09:20:25;;;;;;;4.27;2.77;;;16.50;73.10;;;;;;5031381;28;20497;-50
2021/05/31 09:22:55;;;;;;;4.40;3.50;;;16.80;73.10;;;;;;5031094;28;20480;-49
2021/05/31 09:25:31;;;;;;;5.27;3.80;;;17.10;73.80;;;;;;5031446;28;20442;-49
2021/05/31 09:27:59;;;;;;;3.13;2.83;;;16.90;73.10;;;;;;5031333;28;20546;-48
2021/05/31 09:30:37;;;;;;;5.00;2.93;;;17.00;72.80;;;;;;5030809;28;20432;-47
2021/05/31 09:33:07;;;;;;;3.80;2.33;;;17.20;73.30;;;;;;5030848;28;20490;-49
2021/05/31 09:35:33;;;;;;;4.90;3.30;;;17.10;71.70;;;;;;5031070;28;20523;-48
2021/05/31 09:38:02;;;;;;;6.90;3.20;;;16.70;70.70;;;;;;5030648;28;20503;-49
2021/05/31 09:40:29;;;;;;;3.60;2.80;;;17.20;70.80;;;;;;5030710;28;20437;-50
2021/05/31 09:42:56;;;;;;;3.93;2.90;;;17.20;70.30;;;;;;5030392;28;20459;-50
2021/05/31 09:45:23;;;;;;;4.40;2.43;;;17.50;70.00;;;;;;5030664;28;20428;-50
2021/05/31 09:47:49;;;;;;;3.50;2.60;;;17.60;69.60;;;;;;5030768;28;20440;-48
2021/05/31 09:50:22;;;;;;;4.73;2.73;;;17.20;67.70;;;;;;5030127;28;20446;-48
2021/05/31 09:53:00;;;;;;;4.43;3.10;;;17.50;63.90;;;;;;5030355;28;20984;-49
2021/05/31 09:55:32;;;;;;;4.93;2.60;;;17.50;64.40;;;;;;5030371;28;20948;-48
2021/05/31 09:57:58;;;;;;;4.20;1.97;;;17.20;60.90;;;;;;5030399;28;20437;-49
2021/05/31 10:00:29;;;;;;;3.67;2.27;;;17.40;60.30;;;;;;5030529;28;20453;-49
2021/05/31 10:02:58;;;;;;;3.50;2.40;;;17.10;59.20;;;;;;5030338;28;20579;-48
2021/05/31 10:05:31;;;;;;;2.97;2.00;;;17.50;58.60;;;;;;5028646;28;20451;-49
2021/05/31 10:08:02;;;;;;;2.33;1.80;;;17.40;57.60;;;;;;5029621;28;20495;-48
2021/05/31 10:10:30;;;;;;;4.53;2.07;;;17.70;57.30;;;;;;5028109;28;20542;-49
2021/05/31 10:12:57;;;;;;;2.47;2.20;;;17.30;56.00;;;;;;5028811;28;21011;-47
2021/05/31 10:15:25;;;;;;;7.37;2.27;;;17.60;56.60;;;;;;5030512;28;20500;-49
2021/05/31 10:17:54;;;;;;;7.17;2.37;;;17.50;57.20;;;;;;5030209;28;20440;-49
2021/05/31 10:20:21;;;;;;;3.37;2.27;;;17.70;57.90;;;;;;5028287;28;20979;-49
2021/05/31 10:22:47;;;;;;;4.40;2.63;;;17.00;57.60;;;;;;5030260;28;20834;-49
2021/05/31 10:25:15;;;;;;;6.47;2.17;;;17.40;58.70;;;;;;5030531;28;20429;-48
2021/05/31 10:27:44;;;;;;;4.83;2.93;;;17.70;60.00;;;;;;5030723;28;20542;-48
2021/05/31 10:30:14;;;;;;;3.13;2.40;;;17.80;60.80;;;;;;5029987;28;20538;-48
2021/05/31 10:32:42;;;;;;;2.60;2.17;;;17.80;61.00;;;;;;5029922;28;20502;-49
2021/05/31 10:35:15;;;;;;;3.57;2.60;;;17.70;61.10;;;;;;5030214;28;20442;-49
2021/05/31 10:37:51;;;;;;;3.37;2.50;;;17.90;60.70;;;;;;5030081;28;20913;-49
2021/05/31 10:40:18;;;;;;;2.60;2.33;;;17.90;60.00;;;;;;5029687;28;20474;-50
2021/05/31 10:42:48;;;;;;;4.33;3.07;;;17.80;60.10;;;;;;5030076;28;20488;-49
2021/05/31 10:45:28;;;;;;;5.47;2.67;;;17.80;60.00;;;;;;5029629;28;20438;-50
2021/05/31 10:48:01;;;;;;;3.00;2.10;;;18.00;59.60;;;;;;5030288;28;20441;-49
2021/05/31 10:50:29;;;;;;;2.77;2.03;;;17.80;59.00;;;;;;5030146;28;20797;-48
2021/05/31 10:52:56;;;;;;;6.53;2.33;;;17.80;58.70;;;;;;5029720;28;20496;-49
2021/05/31 10:55:22;;;;;;;2.53;2.17;;;17.50;58.40;;;;;;5030247;28;20904;-49
2021/05/31 10:57:50;;;;;;;3.87;2.00;;;17.80;57.70;;;;;;5029965;28;20491;-49
2021/05/31 11:00:27;;;;;;;4.50;2.10;;;18.00;54.60;;;;;;5029990;28;20848;-49
2021/05/31 11:03:06;;;;;;;2.70;2.00;;;18.00;54.90;;;;;;5030220;28;20511;-48
2021/05/31 11:05:34;;;;;;;2.30;2.00;;;18.10;56.30;;;;;;5030388;28;20445;-49
2021/05/31 11:08:00;;;;;;;4.33;2.93;;;17.90;56.70;;;;;;5029652;28;20439;-50
2021/05/31 11:10:31;;;;;;;2.10;1.50;;;18.00;57.50;;;;;;5028375;28;20919;-49
2021/05/31 11:13:09;;;;;;;3.43;2.43;;;18.10;56.30;;;;;;5029767;28;20998;-49
2021/05/31 11:15:35;;;;;;;3.70;2.00;;;17.80;54.60;;;;;;5029857;28;20526;-50
2021/05/31 11:18:02;;;;;;;1.60;1.20;;;18.20;53.80;;;;;;5028342;28;20549;-49
2021/05/31 11:20:29;;;;;;;2.43;1.87;;;18.00;52.10;;;;;;5029369;28;20905;-49
2021/05/31 11:22:59;;;;;;;2.10;1.80;;;18.10;50.30;;;;;;5029564;28;20453;-49
2021/05/31 11:25:27;;;;;;;2.40;1.60;;;18.10;50.90;;;;;;5029778;28;20446;-48
2021/05/31 11:27:57;;;;;;;2.60;2.20;;;18.10;52.30;;;;;;5029345;28;20449;-50
2021/05/31 11:30:27;;;;;;;4.77;2.17;;;18.10;52.30;;;;;;5029714;28;20544;-49
2021/05/31 11:32:55;;;;;;;2.87;1.93;;;18.20;51.10;;;;;;5030578;28;20566;-49
2021/05/31 11:35:23;;;;;;;4.03;1.83;;;18.10;49.40;;;;;;5033352;28;20811;-50
2021/05/31 11:37:51;;;;;;;2.50;1.73;;;18.20;50.80;;;;;;5032790;28;20428;-49
2021/05/31 11:40:23;;;;;;;2.30;2.00;;;18.20;51.30;;;;;;5033524;28;20869;-49
2021/05/31 11:42:51;;;;;;;2.67;1.90;;;18.20;50.20;;;;;;5033682;28;20791;-49
2021/05/31 11:45:19;;;;;;;3.60;1.80;;;18.40;50.10;;;;;;5032987;28;20465;-49
2021/05/31 11:47:53;;;;;;;2.03;1.83;;;17.90;49.60;;;;;;5033168;28;20433;-49
2021/05/31 11:50:21;;;;;;;2.93;2.03;;;18.50;49.80;;;;;;5032948;28;20438;-49
2021/05/31 11:52:47;;;;;;;2.63;1.70;;;18.30;50.40;;;;;;5031208;28;20576;-49
2021/05/31 11:55:18;;;;;;;2.37;1.40;;;18.20;50.20;;;;;;5032875;28;20559;-49
2021/05/31 11:57:44;;;;;;;2.70;1.67;;;18.30;49.70;;;;;;5031383;28;21019;-50
2021/05/31 12:00:16;;;;;;;2.70;2.00;;;18.30;49.80;;;;;;5032548;28;20446;-51
2021/05/31 12:02:42;;;;;;;3.80;1.80;;;18.50;50.20;;;;;;5032054;28;20828;-49
2021/05/31 12:05:11;;;;;;;2.53;1.50;;;18.40;50.70;;;;;;5033076;28;20524;-49
2021/05/31 12:07:42;;;;;;;3.07;1.70;;;18.40;49.80;;;;;;5032624;28;20455;-49
2021/05/31 12:10:09;;;;;;;3.10;2.03;;;18.80;49.80;;;;;;5032409;28;20438;-49
2021/05/31 12:12:35;;;;;;;3.77;2.10;;;18.30;49.80;;;;;;5032526;28;20489;-49
2021/05/31 12:15:02;;;;;;;3.90;1.80;;;18.20;50.20;;;;;;5032712;28;20442;-50
2021/05/31 12:17:29;;;;;;;3.10;2.00;;;18.70;50.90;;;;;;5032839;28;20442;-49
2021/05/31 12:19:56;;;;;;;3.97;1.87;;;18.60;51.10;;;;;;5032086;28;20461;-50
2021/05/31 12:22:28;;;;;;;2.00;1.80;;;18.70;51.30;;;;;;5032642;28;20457;-50
2021/05/31 12:24:55;;;;;;;4.17;2.17;;;18.80;51.20;;;;;;5032652;28;20435;-50
2021/05/31 12:27:23;;;;;;;4.30;2.00;;;18.80;50.80;;;;;;5032157;28;20442;-50
2021/05/31 12:29:49;;;;;;;2.87;1.73;;;18.70;50.70;;;;;;5031927;28;20572;-49
2021/05/31 12:32:18;;;;;;;2.20;1.50;;;18.80;50.90;;;;;;5032271;28;20509;-48
2021/05/31 12:34:45;;;;;;;2.43;2.00;;;18.90;50.60;;;;;;5031448;28;20453;-50
2021/05/31 12:37:13;;;;;;;2.60;1.57;;;18.80;50.90;;;;;;5031390;28;20806;-50
2021/05/31 12:39:43;;;;;;;4.23;2.17;;;19.10;50.80;;;;;;5031353;28;20431;-50
2021/05/31 12:42:11;;;;;;;3.37;2.00;;;18.80;50.60;;;;;;5030690;28;20639;-49
2021/05/31 12:44:37;;;;;;;4.50;2.57;;;19.00;51.20;;;;;;5031921;28;20527;-51
2021/05/31 12:47:09;;;;;;;3.93;2.30;;;18.70;51.30;;;;;;5031490;28;20435;-51
2021/05/31 12:49:35;;;;;;;3.20;1.90;;;18.70;51.10;;;;;;5031459;28;20499;-50
2021/05/31 12:52:02;;;;;;;4.43;2.00;;;19.00;51.20;;;;;;5031877;28;20474;-50
2021/05/31 12:54:30;;;;;;;2.97;2.30;;;19.30;51.80;;;;;;5032130;28;20439;-49
2021/05/31 12:57:09;;;;;;;3.83;2.07;;;19.10;51.80;;;;;;5031260;28;20446;-49
2021/05/31 12:59:38;;;;;;;2.43;2.10;;;19.20;52.20;;;;;;5031181;28;20437;-50